sensor_id;sensor_type;location;lat;lon;timestamp;P1;durP1;ratioP1;P2;durP2;ratioP2
74512;SDS011;62992;52.052;8.550;2022-11-15T00:01:48;9.60;;;5.70;;
74512;SDS011;62992;52.052;8.550;2022-11-15T00:04:32;7.28;;;4.85;;
74512;SDS011;62992;52.052;8.550;2022-11-15T00:07:17;12.02;;;5.93;;
74512;SDS011;62992;52.052;8.550;2022-11-15T00:10:01;10.02;;;5.68;;
74512;SDS011;62992;52.052;8.550;2022-11-15T00:12:45;8.77;;;5.60;;
74512;SDS011;62992;52.052;8.550;2022-11-15T00:15:29;8.88;;;5.22;;
74512;SDS011;62992;52.052;8.550;2022-11-15T00:18:13;9.05;;;5.20;;
74512;SDS011;62992;52.052;8.550;2022-11-15T00:21:06;8.73;;;5.25;;
74512;SDS011;62992;52.052;8.550;2022-11-15T00:23:53;8.50;;;5.15;;
74512;SDS011;62992;52.052;8.550;2022-11-15T00:26:37;11.15;;;4.90;;
74512;SDS011;62992;52.052;8.550;2022-11-15T00:29:21;9.93;;;5.32;;
74512;SDS011;62992;52.052;8.550;2022-11-15T00:32:05;9.48;;;6.03;;
74512;SDS011;62992;52.052;8.550;2022-11-15T00:34:49;9.90;;;5.20;;
74512;SDS011;62992;52.052;8.550;2022-11-15T00:37:33;9.45;;;5.45;;
74512;SDS011;62992;52.052;8.550;2022-11-15T00:40:17;9.60;;;5.95;;
74512;SDS011;62992;52.052;8.550;2022-11-15T00:43:01;11.25;;;5.85;;
74512;SDS011;62992;52.052;8.550;2022-11-15T00:45:45;10.65;;;5.30;;
74512;SDS011;62992;52.052;8.550;2022-11-15T00:48:29;7.30;;;4.90;;
74512;SDS011;62992;52.052;8.550;2022-11-15T00:51:15;10.18;;;4.88;;
74512;SDS011;62992;52.052;8.550;2022-11-15T00:53:59;10.07;;;5.45;;
74512;SDS011;62992;52.052;8.550;2022-11-15T00:56:43;9.15;;;5.70;;
74512;SDS011;62992;52.052;8.550;2022-11-15T00:59:27;12.93;;;6.05;;
74512;SDS011;62992;52.052;8.550;2022-11-15T01:02:11;10.43;;;5.82;;
74512;SDS011;62992;52.052;8.550;2022-11-15T01:04:55;11.75;;;6.45;;
74512;SDS011;62992;52.052;8.550;2022-11-15T01:07:39;10.40;;;6.03;;
74512;SDS011;62992;52.052;8.550;2022-11-15T01:10:23;9.38;;;5.32;;
74512;SDS011;62992;52.052;8.550;2022-11-15T01:13:09;9.68;;;6.13;;
74512;SDS011;62992;52.052;8.550;2022-11-15T01:15:53;10.70;;;6.10;;
74512;SDS011;62992;52.052;8.550;2022-11-15T01:18:38;8.57;;;5.28;;
74512;SDS011;62992;52.052;8.550;2022-11-15T01:21:22;11.85;;;5.97;;
74512;SDS011;62992;52.052;8.550;2022-11-15T01:24:07;7.70;;;5.00;;
74512;SDS011;62992;52.052;8.550;2022-11-15T01:26:51;10.32;;;5.53;;
74512;SDS011;62992;52.052;8.550;2022-11-15T01:29:35;8.43;;;5.15;;
74512;SDS011;62992;52.052;8.550;2022-11-15T01:32:19;7.78;;;5.03;;
74512;SDS011;62992;52.052;8.550;2022-11-15T01:35:03;8.00;;;4.45;;
74512;SDS011;62992;52.052;8.550;2022-11-15T01:37:48;8.57;;;4.97;;
74512;SDS011;62992;52.052;8.550;2022-11-15T01:40:32;8.82;;;4.95;;
74512;SDS011;62992;52.052;8.550;2022-11-15T01:49:11;8.85;;;5.55;;
74512;SDS011;62992;52.052;8.550;2022-11-15T01:52:00;7.60;;;5.05;;
74512;SDS011;62992;52.052;8.550;2022-11-15T01:54:47;11.52;;;6.22;;
74512;SDS011;62992;52.052;8.550;2022-11-15T01:57:34;9.45;;;5.85;;
74512;SDS011;62992;52.052;8.550;2022-11-15T02:00:18;11.10;;;5.40;;
74512;SDS011;62992;52.052;8.550;2022-11-15T02:03:03;12.75;;;6.45;;
74512;SDS011;62992;52.052;8.550;2022-11-15T02:05:47;8.40;;;5.50;;
74512;SDS011;62992;52.052;8.550;2022-11-15T02:08:32;8.32;;;5.10;;
74512;SDS011;62992;52.052;8.550;2022-11-15T02:11:16;7.65;;;5.18;;
74512;SDS011;62992;52.052;8.550;2022-11-15T02:14:00;9.70;;;5.32;;
74512;SDS011;62992;52.052;8.550;2022-11-15T02:31:55;9.43;;;5.25;;
74512;SDS011;62992;52.052;8.550;2022-11-15T02:35:18;8.77;;;5.63;;
74512;SDS011;62992;52.052;8.550;2022-11-15T02:41:21;9.95;;;5.35;;
74512;SDS011;62992;52.052;8.550;2022-11-15T02:44:14;8.68;;;5.20;;
74512;SDS011;62992;52.052;8.550;2022-11-15T02:47:07;9.55;;;5.10;;
74512;SDS011;62992;52.052;8.550;2022-11-15T02:49:58;8.48;;;5.40;;
74512;SDS011;62992;52.052;8.550;2022-11-15T02:52:46;7.65;;;5.65;;
74512;SDS011;62992;52.052;8.550;2022-11-15T02:55:36;8.80;;;5.38;;
74512;SDS011;62992;52.052;8.550;2022-11-15T03:10:10;10.70;;;6.03;;
74512;SDS011;62992;52.052;8.550;2022-11-15T03:16:13;8.30;;;5.68;;
74512;SDS011;62992;52.052;8.550;2022-11-15T03:19:12;9.50;;;5.90;;
74512;SDS011;62992;52.052;8.550;2022-11-15T03:24:47;12.05;;;5.93;;
74512;SDS011;62992;52.052;8.550;2022-11-15T03:27:39;10.30;;;6.63;;
74512;SDS011;62992;52.052;8.550;2022-11-15T03:30:26;12.32;;;6.88;;
74512;SDS011;62992;52.052;8.550;2022-11-15T03:33:12;13.27;;;6.78;;
74512;SDS011;62992;52.052;8.550;2022-11-15T03:35:56;11.88;;;6.50;;
74512;SDS011;62992;52.052;8.550;2022-11-15T03:38:41;13.68;;;6.80;;
74512;SDS011;62992;52.052;8.550;2022-11-15T03:41:31;10.38;;;6.50;;
74512;SDS011;62992;52.052;8.550;2022-11-15T03:47:25;10.75;;;6.97;;
74512;SDS011;62992;52.052;8.550;2022-11-15T03:50:15;10.88;;;6.90;;
74512;SDS011;62992;52.052;8.550;2022-11-15T03:53:02;14.40;;;6.97;;
74512;SDS011;62992;52.052;8.550;2022-11-15T03:55:46;15.80;;;7.22;;
74512;SDS011;62992;52.052;8.550;2022-11-15T03:58:30;11.18;;;6.60;;
74512;SDS011;62992;52.052;8.550;2022-11-15T04:01:14;11.13;;;6.78;;
74512;SDS011;62992;52.052;8.550;2022-11-15T04:03:58;12.55;;;7.43;;
74512;SDS011;62992;52.052;8.550;2022-11-15T04:06:42;12.63;;;6.63;;
74512;SDS011;62992;52.052;8.550;2022-11-15T04:09:26;9.30;;;6.20;;
74512;SDS011;62992;52.052;8.550;2022-11-15T04:12:10;12.57;;;7.53;;
74512;SDS011;62992;52.052;8.550;2022-11-15T04:14:54;11.57;;;7.28;;
74512;SDS011;62992;52.052;8.550;2022-11-15T04:17:51;14.13;;;6.83;;
74512;SDS011;62992;52.052;8.550;2022-11-15T04:20:37;13.13;;;7.43;;
74512;SDS011;62992;52.052;8.550;2022-11-15T04:23:40;14.07;;;7.90;;
74512;SDS011;62992;52.052;8.550;2022-11-15T04:26:43;12.55;;;6.85;;
74512;SDS011;62992;52.052;8.550;2022-11-15T04:29:27;13.57;;;7.70;;
74512;SDS011;62992;52.052;8.550;2022-11-15T04:32:20;11.73;;;7.05;;
74512;SDS011;62992;52.052;8.550;2022-11-15T04:35:04;13.80;;;7.72;;
74512;SDS011;62992;52.052;8.550;2022-11-15T04:37:49;12.50;;;7.30;;
74512;SDS011;62992;52.052;8.550;2022-11-15T04:40:33;10.63;;;7.07;;
74512;SDS011;62992;52.052;8.550;2022-11-15T04:43:18;11.60;;;7.70;;
74512;SDS011;62992;52.052;8.550;2022-11-15T04:46:02;13.50;;;8.13;;
74512;SDS011;62992;52.052;8.550;2022-11-15T04:48:46;13.52;;;8.25;;
74512;SDS011;62992;52.052;8.550;2022-11-15T04:51:31;12.40;;;7.70;;
74512;SDS011;62992;52.052;8.550;2022-11-15T04:54:15;14.93;;;7.75;;
74512;SDS011;62992;52.052;8.550;2022-11-15T04:56:58;11.32;;;6.97;;
74512;SDS011;62992;52.052;8.550;2022-11-15T04:59:43;14.02;;;7.40;;
74512;SDS011;62992;52.052;8.550;2022-11-15T05:02:27;13.32;;;7.60;;
74512;SDS011;62992;52.052;8.550;2022-11-15T05:05:31;11.73;;;7.70;;
74512;SDS011;62992;52.052;8.550;2022-11-15T05:08:15;11.88;;;7.78;;
74512;SDS011;62992;52.052;8.550;2022-11-15T05:10:59;11.82;;;7.60;;
74512;SDS011;62992;52.052;8.550;2022-11-15T05:13:43;13.38;;;7.53;;
74512;SDS011;62992;52.052;8.550;2022-11-15T05:16:27;14.18;;;8.00;;
74512;SDS011;62992;52.052;8.550;2022-11-15T05:19:11;14.60;;;7.55;;
74512;SDS011;62992;52.052;8.550;2022-11-15T05:21:55;12.75;;;7.32;;
74512;SDS011;62992;52.052;8.550;2022-11-15T05:24:39;12.25;;;7.10;;
74512;SDS011;62992;52.052;8.550;2022-11-15T05:27:23;11.95;;;7.22;;
74512;SDS011;62992;52.052;8.550;2022-11-15T05:30:07;11.18;;;6.90;;
74512;SDS011;62992;52.052;8.550;2022-11-15T05:32:52;11.32;;;7.38;;
74512;SDS011;62992;52.052;8.550;2022-11-15T05:35:38;12.70;;;7.57;;
74512;SDS011;62992;52.052;8.550;2022-11-15T05:38:25;12.20;;;6.95;;
74512;SDS011;62992;52.052;8.550;2022-11-15T05:41:09;10.52;;;7.53;;
74512;SDS011;62992;52.052;8.550;2022-11-15T05:43:55;9.43;;;6.40;;
74512;SDS011;62992;52.052;8.550;2022-11-15T05:46:39;12.77;;;7.18;;
74512;SDS011;62992;52.052;8.550;2022-11-15T05:49:26;13.57;;;6.90;;
74512;SDS011;62992;52.052;8.550;2022-11-15T05:52:16;10.88;;;7.28;;
74512;SDS011;62992;52.052;8.550;2022-11-15T05:55:03;10.10;;;5.82;;
74512;SDS011;62992;52.052;8.550;2022-11-15T05:57:50;11.50;;;6.82;;
74512;SDS011;62992;52.052;8.550;2022-11-15T06:00:34;8.65;;;6.00;;
74512;SDS011;62992;52.052;8.550;2022-11-15T06:03:19;8.70;;;6.30;;
74512;SDS011;62992;52.052;8.550;2022-11-15T06:06:03;9.93;;;6.75;;
74512;SDS011;62992;52.052;8.550;2022-11-15T06:08:47;8.95;;;6.32;;
74512;SDS011;62992;52.052;8.550;2022-11-15T06:11:31;12.88;;;6.97;;
74512;SDS011;62992;52.052;8.550;2022-11-15T06:14:15;11.23;;;6.47;;
74512;SDS011;62992;52.052;8.550;2022-11-15T06:16:59;9.43;;;6.32;;
74512;SDS011;62992;52.052;8.550;2022-11-15T06:19:44;9.80;;;6.57;;
74512;SDS011;62992;52.052;8.550;2022-11-15T06:22:28;9.98;;;6.05;;
74512;SDS011;62992;52.052;8.550;2022-11-15T06:25:12;9.38;;;6.25;;
74512;SDS011;62992;52.052;8.550;2022-11-15T06:27:57;9.43;;;6.03;;
74512;SDS011;62992;52.052;8.550;2022-11-15T06:30:42;11.43;;;5.97;;
74512;SDS011;62992;52.052;8.550;2022-11-15T06:33:26;8.13;;;5.55;;
74512;SDS011;62992;52.052;8.550;2022-11-15T06:36:11;8.70;;;5.82;;
74512;SDS011;62992;52.052;8.550;2022-11-15T06:39:00;10.90;;;5.65;;
74512;SDS011;62992;52.052;8.550;2022-11-15T06:41:44;10.10;;;6.15;;
74512;SDS011;62992;52.052;8.550;2022-11-15T06:44:28;8.32;;;5.22;;
74512;SDS011;62992;52.052;8.550;2022-11-15T06:47:12;8.65;;;5.88;;
74512;SDS011;62992;52.052;8.550;2022-11-15T06:49:56;8.20;;;5.85;;
74512;SDS011;62992;52.052;8.550;2022-11-15T06:52:41;9.25;;;5.32;;
74512;SDS011;62992;52.052;8.550;2022-11-15T06:55:25;8.38;;;5.78;;
74512;SDS011;62992;52.052;8.550;2022-11-15T06:58:09;8.38;;;5.60;;
74512;SDS011;62992;52.052;8.550;2022-11-15T07:00:53;11.23;;;6.47;;
74512;SDS011;62992;52.052;8.550;2022-11-15T07:03:39;10.80;;;5.47;;
74512;SDS011;62992;52.052;8.550;2022-11-15T07:06:24;8.55;;;5.57;;
74512;SDS011;62992;52.052;8.550;2022-11-15T07:09:08;10.82;;;6.20;;
74512;SDS011;62992;52.052;8.550;2022-11-15T07:11:52;7.30;;;4.93;;
74512;SDS011;62992;52.052;8.550;2022-11-15T07:14:36;8.27;;;5.35;;
74512;SDS011;62992;52.052;8.550;2022-11-15T07:17:20;7.57;;;5.78;;
74512;SDS011;62992;52.052;8.550;2022-11-15T07:20:04;7.72;;;5.00;;
74512;SDS011;62992;52.052;8.550;2022-11-15T07:22:49;8.52;;;5.18;;
74512;SDS011;62992;52.052;8.550;2022-11-15T07:25:33;8.98;;;5.78;;
74512;SDS011;62992;52.052;8.550;2022-11-15T07:28:17;8.23;;;5.15;;
74512;SDS011;62992;52.052;8.550;2022-11-15T07:31:02;8.75;;;5.50;;
74512;SDS011;62992;52.052;8.550;2022-11-15T07:33:50;7.40;;;4.88;;
74512;SDS011;62992;52.052;8.550;2022-11-15T07:36:34;7.80;;;4.97;;
74512;SDS011;62992;52.052;8.550;2022-11-15T07:39:19;5.82;;;4.55;;
74512;SDS011;62992;52.052;8.550;2022-11-15T07:42:03;7.75;;;4.55;;
74512;SDS011;62992;52.052;8.550;2022-11-15T07:45:06;7.32;;;4.95;;
74512;SDS011;62992;52.052;8.550;2022-11-15T07:47:51;5.18;;;4.10;;
74512;SDS011;62992;52.052;8.550;2022-11-15T07:50:36;7.37;;;5.00;;
74512;SDS011;62992;52.052;8.550;2022-11-15T07:53:23;8.15;;;5.13;;
74512;SDS011;62992;52.052;8.550;2022-11-15T07:56:07;7.55;;;4.60;;
74512;SDS011;62992;52.052;8.550;2022-11-15T07:58:52;7.32;;;4.90;;
74512;SDS011;62992;52.052;8.550;2022-11-15T08:01:36;6.35;;;4.03;;
74512;SDS011;62992;52.052;8.550;2022-11-15T08:04:20;8.05;;;4.60;;
74512;SDS011;62992;52.052;8.550;2022-11-15T08:07:04;6.00;;;3.72;;
74512;SDS011;62992;52.052;8.550;2022-11-15T08:09:48;6.18;;;4.38;;
74512;SDS011;62992;52.052;8.550;2022-11-15T08:12:32;7.00;;;4.30;;
74512;SDS011;62992;52.052;8.550;2022-11-15T08:15:17;6.07;;;4.32;;
74512;SDS011;62992;52.052;8.550;2022-11-15T08:18:03;9.95;;;4.55;;
74512;SDS011;62992;52.052;8.550;2022-11-15T08:20:59;6.97;;;4.47;;
74512;SDS011;62992;52.052;8.550;2022-11-15T08:23:44;6.38;;;3.97;;
74512;SDS011;62992;52.052;8.550;2022-11-15T08:26:29;5.22;;;4.00;;
74512;SDS011;62992;52.052;8.550;2022-11-15T08:29:13;6.85;;;4.18;;
74512;SDS011;62992;52.052;8.550;2022-11-15T08:31:57;5.78;;;3.20;;
74512;SDS011;62992;52.052;8.550;2022-11-15T08:34:41;5.93;;;3.60;;
74512;SDS011;62992;52.052;8.550;2022-11-15T08:37:25;5.70;;;3.10;;
74512;SDS011;62992;52.052;8.550;2022-11-15T08:40:09;5.97;;;3.60;;
74512;SDS011;62992;52.052;8.550;2022-11-15T08:42:54;6.97;;;3.15;;
74512;SDS011;62992;52.052;8.550;2022-11-15T08:45:38;5.28;;;3.65;;
74512;SDS011;62992;52.052;8.550;2022-11-15T08:48:22;4.70;;;2.92;;
74512;SDS011;62992;52.052;8.550;2022-11-15T08:51:06;5.30;;;2.88;;
74512;SDS011;62992;52.052;8.550;2022-11-15T08:53:50;5.75;;;3.33;;
74512;SDS011;62992;52.052;8.550;2022-11-15T08:56:34;3.22;;;2.40;;
74512;SDS011;62992;52.052;8.550;2022-11-15T08:59:18;7.10;;;3.05;;
74512;SDS011;62992;52.052;8.550;2022-11-15T09:02:03;4.20;;;2.30;;
74512;SDS011;62992;52.052;8.550;2022-11-15T09:04:47;3.63;;;2.08;;
74512;SDS011;62992;52.052;8.550;2022-11-15T09:07:31;5.13;;;2.40;;
74512;SDS011;62992;52.052;8.550;2022-11-15T09:10:15;4.10;;;2.22;;
74512;SDS011;62992;52.052;8.550;2022-11-15T09:13:00;4.57;;;2.15;;
74512;SDS011;62992;52.052;8.550;2022-11-15T09:15:44;2.70;;;1.70;;
74512;SDS011;62992;52.052;8.550;2022-11-15T09:18:28;4.45;;;2.00;;
74512;SDS011;62992;52.052;8.550;2022-11-15T09:21:12;3.42;;;1.92;;
74512;SDS011;62992;52.052;8.550;2022-11-15T09:23:56;2.33;;;1.65;;
74512;SDS011;62992;52.052;8.550;2022-11-15T09:26:41;2.80;;;1.70;;
74512;SDS011;62992;52.052;8.550;2022-11-15T09:29:25;3.20;;;1.58;;
74512;SDS011;62992;52.052;8.550;2022-11-15T09:32:09;3.60;;;1.55;;
74512;SDS011;62992;52.052;8.550;2022-11-15T09:34:54;3.75;;;1.63;;
74512;SDS011;62992;52.052;8.550;2022-11-15T09:37:38;3.97;;;1.70;;
74512;SDS011;62992;52.052;8.550;2022-11-15T09:40:22;2.70;;;1.55;;
74512;SDS011;62992;52.052;8.550;2022-11-15T09:46:17;3.97;;;1.40;;
74512;SDS011;62992;52.052;8.550;2022-11-15T09:49:17;3.50;;;1.45;;
74512;SDS011;62992;52.052;8.550;2022-11-15T09:52:02;2.77;;;1.70;;
74512;SDS011;62992;52.052;8.550;2022-11-15T09:54:48;2.65;;;1.50;;
74512;SDS011;62992;52.052;8.550;2022-11-15T10:00:28;2.08;;;1.45;;
74512;SDS011;62992;52.052;8.550;2022-11-15T10:03:33;2.05;;;1.52;;
74512;SDS011;62992;52.052;8.550;2022-11-15T10:06:22;2.63;;;1.50;;
74512;SDS011;62992;52.052;8.550;2022-11-15T10:12:10;2.80;;;1.45;;
74512;SDS011;62992;52.052;8.550;2022-11-15T10:15:06;2.42;;;1.50;;
74512;SDS011;62992;52.052;8.550;2022-11-15T10:21:02;3.47;;;1.55;;
74512;SDS011;62992;52.052;8.550;2022-11-15T10:24:08;1.70;;;1.20;;
74512;SDS011;62992;52.052;8.550;2022-11-15T10:26:55;3.50;;;1.35;;
74512;SDS011;62992;52.052;8.550;2022-11-15T10:29:47;1.60;;;0.85;;
74512;SDS011;62992;52.052;8.550;2022-11-15T10:32:32;2.80;;;1.45;;
74512;SDS011;62992;52.052;8.550;2022-11-15T10:35:25;1.88;;;0.95;;
74512;SDS011;62992;52.052;8.550;2022-11-15T10:38:11;2.35;;;1.10;;
74512;SDS011;62992;52.052;8.550;2022-11-15T10:40:57;2.45;;;1.02;;
74512;SDS011;62992;52.052;8.550;2022-11-15T10:49:41;2.05;;;0.90;;
74512;SDS011;62992;52.052;8.550;2022-11-15T10:52:44;4.30;;;0.88;;
74512;SDS011;62992;52.052;8.550;2022-11-15T10:55:30;0.90;;;0.80;;
74512;SDS011;62992;52.052;8.550;2022-11-15T11:04:05;2.08;;;0.80;;
74512;SDS011;62992;52.052;8.550;2022-11-15T11:09:42;2.20;;;0.93;;
74512;SDS011;62992;52.052;8.550;2022-11-15T11:12:30;2.00;;;0.98;;
74512;SDS011;62992;52.052;8.550;2022-11-15T11:15:16;2.03;;;1.00;;
74512;SDS011;62992;52.052;8.550;2022-11-15T11:18:07;2.22;;;1.00;;
74512;SDS011;62992;52.052;8.550;2022-11-15T11:21:03;3.28;;;1.40;;
74512;SDS011;62992;52.052;8.550;2022-11-15T11:30:05;2.13;;;1.05;;
74512;SDS011;62992;52.052;8.550;2022-11-15T11:39:09;2.40;;;1.40;;
74512;SDS011;62992;52.052;8.550;2022-11-15T11:42:12;3.55;;;1.40;;
74512;SDS011;62992;52.052;8.550;2022-11-15T11:51:51;3.67;;;1.50;;
74512;SDS011;62992;52.052;8.550;2022-11-15T11:54:52;2.67;;;1.38;;
74512;SDS011;62992;52.052;8.550;2022-11-15T12:01:05;3.75;;;1.48;;
74512;SDS011;62992;52.052;8.550;2022-11-15T12:04:04;3.80;;;1.73;;
74512;SDS011;62992;52.052;8.550;2022-11-15T12:09:43;2.08;;;1.50;;
74512;SDS011;62992;52.052;8.550;2022-11-15T12:12:36;2.33;;;1.48;;
74512;SDS011;62992;52.052;8.550;2022-11-15T12:15:31;2.03;;;1.50;;
74512;SDS011;62992;52.052;8.550;2022-11-15T12:18:21;2.13;;;1.48;;
74512;SDS011;62992;52.052;8.550;2022-11-15T12:21:07;2.40;;;1.20;;
74512;SDS011;62992;52.052;8.550;2022-11-15T12:24:24;2.47;;;1.20;;
74512;SDS011;62992;52.052;8.550;2022-11-15T12:27:17;2.85;;;1.35;;
74512;SDS011;62992;52.052;8.550;2022-11-15T12:35:40;2.65;;;1.40;;
74512;SDS011;62992;52.052;8.550;2022-11-15T12:41:36;3.30;;;1.15;;
74512;SDS011;62992;52.052;8.550;2022-11-15T12:45:23;1.85;;;1.20;;
74512;SDS011;62992;52.052;8.550;2022-11-15T12:47:31;2.75;;;1.30;;
74512;SDS011;62992;52.052;8.550;2022-11-15T12:50:15;1.65;;;1.40;;
74512;SDS011;62992;52.052;8.550;2022-11-15T12:53:25;1.88;;;1.05;;
74512;SDS011;62992;52.052;8.550;2022-11-15T12:59:00;2.63;;;1.23;;
74512;SDS011;62992;52.052;8.550;2022-11-15T13:04:29;3.33;;;1.33;;
74512;SDS011;62992;52.052;8.550;2022-11-15T13:10:37;2.42;;;1.30;;
74512;SDS011;62992;52.052;8.550;2022-11-15T13:16:28;2.92;;;1.50;;
74512;SDS011;62992;52.052;8.550;2022-11-15T13:19:13;2.45;;;1.10;;
74512;SDS011;62992;52.052;8.550;2022-11-15T13:21:58;1.95;;;0.88;;
74512;SDS011;62992;52.052;8.550;2022-11-15T13:25:01;2.13;;;0.80;;
74512;SDS011;62992;52.052;8.550;2022-11-15T13:27:49;1.75;;;0.85;;
74512;SDS011;62992;52.052;8.550;2022-11-15T13:30:34;1.98;;;1.10;;
74512;SDS011;62992;52.052;8.550;2022-11-15T13:33:21;1.52;;;0.98;;
74512;SDS011;62992;52.052;8.550;2022-11-15T13:36:15;1.77;;;1.20;;
74512;SDS011;62992;52.052;8.550;2022-11-15T13:39:03;3.13;;;1.23;;
74512;SDS011;62992;52.052;8.550;2022-11-15T13:41:50;2.05;;;1.23;;
74512;SDS011;62992;52.052;8.550;2022-11-15T13:44:34;3.83;;;1.40;;
74512;SDS011;62992;52.052;8.550;2022-11-15T13:47:18;2.15;;;1.30;;
74512;SDS011;62992;52.052;8.550;2022-11-15T13:50:03;2.03;;;1.02;;
74512;SDS011;62992;52.052;8.550;2022-11-15T13:52:49;1.65;;;1.08;;
74512;SDS011;62992;52.052;8.550;2022-11-15T13:55:34;1.45;;;0.95;;
74512;SDS011;62992;52.052;8.550;2022-11-15T13:58:18;3.00;;;1.30;;
74512;SDS011;62992;52.052;8.550;2022-11-15T14:01:03;4.53;;;1.90;;
74512;SDS011;62992;52.052;8.550;2022-11-15T14:03:58;2.25;;;1.30;;
74512;SDS011;62992;52.052;8.550;2022-11-15T14:06:45;2.83;;;1.75;;
74512;SDS011;62992;52.052;8.550;2022-11-15T14:09:35;3.30;;;1.65;;
74512;SDS011;62992;52.052;8.550;2022-11-15T14:18:38;2.38;;;1.73;;
74512;SDS011;62992;52.052;8.550;2022-11-15T14:21:28;2.95;;;1.70;;
74512;SDS011;62992;52.052;8.550;2022-11-15T14:24:19;3.65;;;1.75;;
74512;SDS011;62992;52.052;8.550;2022-11-15T14:30:05;3.10;;;1.70;;
74512;SDS011;62992;52.052;8.550;2022-11-15T14:32:50;4.07;;;2.50;;
74512;SDS011;62992;52.052;8.550;2022-11-15T14:35:34;2.95;;;1.80;;
74512;SDS011;62992;52.052;8.550;2022-11-15T14:38:25;4.53;;;1.83;;
74512;SDS011;62992;52.052;8.550;2022-11-15T14:41:16;3.05;;;1.67;;
74512;SDS011;62992;52.052;8.550;2022-11-15T14:44:03;3.33;;;1.90;;
74512;SDS011;62992;52.052;8.550;2022-11-15T14:46:49;2.75;;;1.92;;
74512;SDS011;62992;52.052;8.550;2022-11-15T14:49:33;2.78;;;1.80;;
74512;SDS011;62992;52.052;8.550;2022-11-15T14:55:12;2.38;;;1.70;;
74512;SDS011;62992;52.052;8.550;2022-11-15T14:58:05;4.18;;;1.88;;
74512;SDS011;62992;52.052;8.550;2022-11-15T15:00:53;5.28;;;1.98;;
74512;SDS011;62992;52.052;8.550;2022-11-15T15:03:37;3.65;;;1.95;;
74512;SDS011;62992;52.052;8.550;2022-11-15T15:06:21;5.38;;;2.40;;
74512;SDS011;62992;52.052;8.550;2022-11-15T15:09:05;4.53;;;2.47;;
74512;SDS011;62992;52.052;8.550;2022-11-15T15:11:49;4.50;;;2.08;;
74512;SDS011;62992;52.052;8.550;2022-11-15T15:14:33;4.38;;;1.92;;
74512;SDS011;62992;52.052;8.550;2022-11-15T15:17:17;3.35;;;1.85;;
74512;SDS011;62992;52.052;8.550;2022-11-15T15:20:01;5.70;;;2.03;;
74512;SDS011;62992;52.052;8.550;2022-11-15T15:22:46;3.70;;;1.75;;
74512;SDS011;62992;52.052;8.550;2022-11-15T15:25:30;4.50;;;1.90;;
74512;SDS011;62992;52.052;8.550;2022-11-15T15:28:16;5.22;;;1.90;;
74512;SDS011;62992;52.052;8.550;2022-11-15T15:31:01;2.40;;;1.80;;
74512;SDS011;62992;52.052;8.550;2022-11-15T15:33:46;2.33;;;1.75;;
74512;SDS011;62992;52.052;8.550;2022-11-15T15:36:30;4.22;;;1.70;;
74512;SDS011;62992;52.052;8.550;2022-11-15T15:39:14;4.45;;;1.83;;
74512;SDS011;62992;52.052;8.550;2022-11-15T15:41:58;3.78;;;1.88;;
74512;SDS011;62992;52.052;8.550;2022-11-15T15:44:43;2.72;;;1.70;;
74512;SDS011;62992;52.052;8.550;2022-11-15T15:47:27;5.75;;;2.10;;
74512;SDS011;62992;52.052;8.550;2022-11-15T15:53:04;4.05;;;1.90;;
74512;SDS011;62992;52.052;8.550;2022-11-15T15:55:48;4.72;;;2.25;;
74512;SDS011;62992;52.052;8.550;2022-11-15T15:58:32;3.00;;;1.63;;
74512;SDS011;62992;52.052;8.550;2022-11-15T16:01:17;4.53;;;1.95;;
74512;SDS011;62992;52.052;8.550;2022-11-15T16:04:01;5.20;;;1.90;;
74512;SDS011;62992;52.052;8.550;2022-11-15T16:06:45;4.85;;;1.80;;
74512;SDS011;62992;52.052;8.550;2022-11-15T16:09:29;4.20;;;2.28;;
74512;SDS011;62992;52.052;8.550;2022-11-15T16:12:33;2.80;;;1.77;;
74512;SDS011;62992;52.052;8.550;2022-11-15T16:15:19;3.63;;;1.98;;
74512;SDS011;62992;52.052;8.550;2022-11-15T16:18:04;3.28;;;1.70;;
74512;SDS011;62992;52.052;8.550;2022-11-15T16:20:51;4.30;;;1.55;;
74512;SDS011;62992;52.052;8.550;2022-11-15T16:23:39;3.65;;;1.90;;
74512;SDS011;62992;52.052;8.550;2022-11-15T16:26:24;2.95;;;1.60;;
74512;SDS011;62992;52.052;8.550;2022-11-15T16:29:10;2.97;;;1.70;;
74512;SDS011;62992;52.052;8.550;2022-11-15T16:31:55;3.55;;;1.92;;
74512;SDS011;62992;52.052;8.550;2022-11-15T16:34:39;3.20;;;1.70;;
74512;SDS011;62992;52.052;8.550;2022-11-15T16:37:24;3.15;;;1.83;;
74512;SDS011;62992;52.052;8.550;2022-11-15T16:43:15;3.90;;;1.83;;
74512;SDS011;62992;52.052;8.550;2022-11-15T16:46:02;3.78;;;1.67;;
74512;SDS011;62992;52.052;8.550;2022-11-15T16:48:52;3.47;;;1.60;;
74512;SDS011;62992;52.052;8.550;2022-11-15T16:51:37;3.70;;;1.73;;
74512;SDS011;62992;52.052;8.550;2022-11-15T16:54:23;6.15;;;1.60;;
74512;SDS011;62992;52.052;8.550;2022-11-15T16:57:08;3.47;;;1.80;;
74512;SDS011;62992;52.052;8.550;2022-11-15T16:59:53;3.97;;;1.75;;
74512;SDS011;62992;52.052;8.550;2022-11-15T17:02:38;2.20;;;1.60;;
74512;SDS011;62992;52.052;8.550;2022-11-15T17:05:22;3.38;;;1.92;;
74512;SDS011;62992;52.052;8.550;2022-11-15T17:08:07;5.47;;;1.80;;
74512;SDS011;62992;52.052;8.550;2022-11-15T17:10:51;2.88;;;1.42;;
74512;SDS011;62992;52.052;8.550;2022-11-15T17:13:35;4.03;;;1.48;;
74512;SDS011;62992;52.052;8.550;2022-11-15T17:16:20;2.45;;;1.50;;
74512;SDS011;62992;52.052;8.550;2022-11-15T17:19:04;3.17;;;1.58;;
74512;SDS011;62992;52.052;8.550;2022-11-15T17:21:48;2.50;;;1.60;;
74512;SDS011;62992;52.052;8.550;2022-11-15T17:24:32;7.05;;;1.60;;
74512;SDS011;62992;52.052;8.550;2022-11-15T17:27:16;2.08;;;1.23;;
74512;SDS011;62992;52.052;8.550;2022-11-15T17:30:00;3.92;;;1.67;;
74512;SDS011;62992;52.052;8.550;2022-11-15T17:32:45;2.42;;;1.33;;
74512;SDS011;62992;52.052;8.550;2022-11-15T17:35:30;4.18;;;1.60;;
74512;SDS011;62992;52.052;8.550;2022-11-15T17:38:14;2.50;;;1.73;;
74512;SDS011;62992;52.052;8.550;2022-11-15T17:41:17;2.67;;;1.58;;
74512;SDS011;62992;52.052;8.550;2022-11-15T17:44:03;3.13;;;1.70;;
74512;SDS011;62992;52.052;8.550;2022-11-15T17:46:47;2.85;;;1.80;;
74512;SDS011;62992;52.052;8.550;2022-11-15T17:49:31;3.25;;;1.77;;
74512;SDS011;62992;52.052;8.550;2022-11-15T17:52:17;2.83;;;1.70;;
74512;SDS011;62992;52.052;8.550;2022-11-15T17:55:01;2.55;;;1.70;;
74512;SDS011;62992;52.052;8.550;2022-11-15T17:57:46;2.65;;;1.92;;
74512;SDS011;62992;52.052;8.550;2022-11-15T18:00:30;3.50;;;1.73;;
74512;SDS011;62992;52.052;8.550;2022-11-15T18:03:14;2.72;;;1.55;;
74512;SDS011;62992;52.052;8.550;2022-11-15T18:05:58;3.45;;;1.75;;
74512;SDS011;62992;52.052;8.550;2022-11-15T18:08:43;3.08;;;1.60;;
74512;SDS011;62992;52.052;8.550;2022-11-15T18:11:29;3.88;;;1.50;;
74512;SDS011;62992;52.052;8.550;2022-11-15T18:14:15;2.35;;;1.50;;
74512;SDS011;62992;52.052;8.550;2022-11-15T18:17:01;2.50;;;1.30;;
74512;SDS011;62992;52.052;8.550;2022-11-15T18:19:45;2.50;;;1.50;;
74512;SDS011;62992;52.052;8.550;2022-11-15T18:22:31;3.05;;;1.75;;
74512;SDS011;62992;52.052;8.550;2022-11-15T18:25:15;2.97;;;1.50;;
74512;SDS011;62992;52.052;8.550;2022-11-15T18:27:59;3.00;;;1.70;;
74512;SDS011;62992;52.052;8.550;2022-11-15T18:30:43;2.08;;;1.48;;
74512;SDS011;62992;52.052;8.550;2022-11-15T18:33:27;3.80;;;2.35;;
74512;SDS011;62992;52.052;8.550;2022-11-15T18:36:19;2.67;;;2.00;;
74512;SDS011;62992;52.052;8.550;2022-11-15T18:39:05;2.97;;;1.92;;
74512;SDS011;62992;52.052;8.550;2022-11-15T18:41:50;2.92;;;1.67;;
74512;SDS011;62992;52.052;8.550;2022-11-15T18:44:34;2.55;;;1.70;;
74512;SDS011;62992;52.052;8.550;2022-11-15T18:47:19;1.65;;;1.40;;
74512;SDS011;62992;52.052;8.550;2022-11-15T18:50:03;2.08;;;1.80;;
74512;SDS011;62992;52.052;8.550;2022-11-15T18:52:47;2.22;;;1.50;;
74512;SDS011;62992;52.052;8.550;2022-11-15T18:55:31;3.72;;;1.45;;
74512;SDS011;62992;52.052;8.550;2022-11-15T18:58:15;2.03;;;1.52;;